Time;durP1;ratioP1;P1;durP2;ratioP2;P2;SDS_P1;SDS_P2;PMS_P1;PMS_P2;Temp;Humidity;BMP_temperature;BMP_pressure;BME280_temperature;BME280_humidity;BME280_pressure;Samples;Min_cycle;Max_cycle;Signal;HPM_P1;HPM_P2
2022/01/19 00:01:16;;;;;;;19.10;7.17;;;;;;;-2.97;100.00;100440.53;4825701;29;20042;-64
2022/01/19 00:03:42;;;;;;;17.40;6.50;;;;;;;-2.95;100.00;100451.78;4825783;29;20038;-64
2022/01/19 00:06:08;;;;;;;17.73;6.47;;;;;;;-3.07;100.00;100441.94;4825713;29;20038;-64
2022/01/19 00:08:34;;;;;;;16.53;6.67;;;;;;;-3.15;100.00;100440.66;4825625;29;20034;-64
2022/01/19 00:10:59;;;;;;;14.77;6.40;;;;;;;-3.17;100.00;100427.66;4825276;29;20209;-64
2022/01/19 00:13:25;;;;;;;17.30;6.87;;;;;;;-3.10;100.00;100429.00;4825562;29;20426;-64
2022/01/19 00:15:52;;;;;;;20.77;6.67;;;;;;;-3.05;100.00;100424.41;4825574;29;20070;-64
2022/01/19 00:18:21;;;;;;;17.00;6.82;;;;;;;-3.02;100.00;100418.19;4825416;29;20038;-64
2022/01/19 00:20:48;;;;;;;16.42;6.97;;;;;;;-2.94;100.00;100418.63;4825351;29;20113;-63
2022/01/19 00:23:18;;;;;;;15.00;6.30;;;;;;;-2.90;100.00;100414.94;4825437;29;20045;-61
2022/01/19 00:25:49;;;;;;;14.18;6.13;;;;;;;-2.86;100.00;100413.81;4825630;29;20401;-64
2022/01/19 00:28:15;;;;;;;19.77;6.55;;;;;;;-2.97;100.00;100417.00;4825365;29;20038;-64
2022/01/19 00:30:42;;;;;;;16.20;6.03;;;;;;;-2.89;100.00;100423.63;4825109;29;20080;-64
2022/01/19 00:33:08;;;;;;;14.50;5.95;;;;;;;-2.95;100.00;100423.00;4825551;29;20046;-64
2022/01/19 00:35:37;;;;;;;22.23;6.20;;;;;;;-3.04;100.00;100425.25;4825220;29;20039;-64
2022/01/19 00:38:03;;;;;;;15.32;6.68;;;;;;;-3.04;100.00;100422.66;4825304;29;20346;-64
2022/01/19 00:40:30;;;;;;;16.52;6.10;;;;;;;-3.01;100.00;100430.34;4824945;29;20061;-64
2022/01/19 00:42:56;;;;;;;14.88;6.53;;;;;;;-3.18;100.00;100428.56;4824999;29;20472;-64
2022/01/19 00:45:22;;;;;;;16.47;6.80;;;;;;;-3.22;100.00;100423.56;4825026;29;20109;-64
2022/01/19 00:47:48;;;;;;;17.77;6.28;;;;;;;-3.31;100.00;100425.72;4825005;29;20034;-62
2022/01/19 00:50:18;;;;;;;16.58;6.47;;;;;;;-3.39;100.00;100429.66;4823757;29;20404;-62
2022/01/19 00:52:44;;;;;;;16.20;6.00;;;;;;;-3.46;100.00;100425.69;4824908;29;20133;-63
2022/01/19 00:55:11;;;;;;;16.67;6.57;;;;;;;-3.56;100.00;100434.88;4824858;29;20034;-63
2022/01/19 00:57:38;;;;;;;14.13;6.03;;;;;;;-3.44;100.00;100432.50;4824916;29;20033;-63
2022/01/19 01:00:05;;;;;;;17.13;6.47;;;;;;;-3.46;100.00;100420.44;4823486;29;20042;-63
2022/01/19 01:02:31;;;;;;;16.52;6.68;;;;;;;-3.56;100.00;100408.75;4823812;29;20038;-62
2022/01/19 01:04:57;;;;;;;13.93;6.00;;;;;;;-3.63;100.00;100402.16;4823479;29;20050;-62
2022/01/19 01:07:22;;;;;;;16.07;6.47;;;;;;;-3.67;100.00;100391.00;4824779;29;20558;-62
2022/01/19 01:09:48;;;;;;;15.07;6.40;;;;;;;-3.68;100.00;100400.59;4824675;29;20030;-62
2022/01/19 01:12:22;;;;;;;17.13;7.17;;;;;;;-3.66;100.00;100395.28;4824593;29;20085;-62
2022/01/19 01:20:17;;;;;;;16.92;6.28;;;;;;;-3.70;100.00;100388.56;4824402;29;20095;-63
2022/01/19 01:22:43;;;;;;;19.80;7.13;;;;;;;-3.68;100.00;100382.31;4824778;29;20042;-62
2022/01/19 01:25:09;;;;;;;16.98;6.90;;;;;;;-3.62;100.00;100370.72;4824584;29;20125;-62
2022/01/19 01:27:35;;;;;;;18.37;6.60;;;;;;;-3.54;100.00;100360.72;4824983;29;20780;-63
2022/01/19 01:30:00;;;;;;;17.53;7.00;;;;;;;-3.55;100.00;100351.19;4824443;29;20031;-62
2022/01/19 01:32:26;;;;;;;14.30;5.87;;;;;;;-3.56;100.00;100346.03;4824680;29;20035;-62
2022/01/19 01:34:52;;;;;;;17.97;6.37;;;;;;;-3.58;100.00;100342.69;4824491;29;20054;-63
2022/01/19 01:37:19;;;;;;;12.43;6.03;;;;;;;-3.69;100.00;100336.22;4824209;29;20030;-62
2022/01/19 01:39:45;;;;;;;19.23;6.75;;;;;;;-3.80;100.00;100340.28;4824099;29;20042;-63
2022/01/19 01:42:13;;;;;;;17.80;6.55;;;;;;;-3.77;100.00;100348.81;4822973;29;20037;-63
2022/01/19 01:44:41;;;;;;;17.55;6.43;;;;;;;-3.76;100.00;100347.06;4823080;29;20446;-63
2022/01/19 01:47:08;;;;;;;19.27;7.20;;;;;;;-3.77;100.00;100354.03;4823995;29;20127;-63
2022/01/19 01:54:53;;;;;;;15.13;6.68;;;;;;;-3.82;100.00;100334.31;4823782;29;20046;-62
2022/01/19 01:57:19;;;;;;;16.60;6.88;;;;;;;-3.71;100.00;100338.09;4823823;29;20484;-62
2022/01/19 01:59:45;;;;;;;16.97;6.57;;;;;;;-3.84;100.00;100337.00;4822530;29;20037;-63
2022/01/19 02:02:11;;;;;;;13.20;6.10;;;;;;;-3.90;100.00;100321.63;4823709;29;20030;-62
2022/01/19 02:04:40;;;;;;;16.53;6.27;;;;;;;-3.93;100.00;100318.34;4823885;29;20030;-62
2022/01/19 02:07:31;;;;;;;12.07;5.80;;;;;;;-4.02;100.00;100311.78;4823958;29;20040;-62
2022/01/19 02:10:03;;;;;;;16.02;6.40;;;;;;;-4.06;100.00;100297.22;4823528;29;20034;-62
2022/01/19 02:23:39;;;;;;;16.05;6.28;;;;;;;-4.15;100.00;100280.22;4823612;29;20088;-62
2022/01/19 02:26:14;;;;;;;18.75;7.57;;;;;;;-4.20;100.00;100273.56;4823486;29;20034;-63
2022/01/19 02:42:37;;;;;;;17.52;6.43;;;;;;;-4.25;100.00;100241.59;4823297;29;19928;-62
2022/01/19 02:49:58;;;;;;;15.18;6.07;;;;;;;-4.21;100.00;100223.13;4823379;29;20049;-62
2022/01/19 02:52:25;;;;;;;15.18;6.25;;;;;;;-4.16;100.00;100222.91;4823158;29;20442;-63
2022/01/19 02:54:51;;;;;;;18.52;6.93;;;;;;;-4.14;100.00;100216.66;4823116;29;20117;-63
2022/01/19 02:57:23;;;;;;;16.85;6.47;;;;;;;-4.19;100.00;100226.50;4822958;29;20034;-62
2022/01/19 03:10:19;;;;;;;;;;;;;;;-4.19;100.00;100183.91;4823108;29;20077;-63
2022/01/19 03:12:45;;;;;;;17.37;7.50;;;;;;;-4.12;100.00;100183.50;4822906;29;19909;-62
2022/01/19 03:15:12;;;;;;;17.90;8.17;;;;;;;-4.03;100.00;100184.78;4822591;29;20030;-62
2022/01/19 03:17:38;;;;;;;21.67;8.05;;;;;;;-4.03;100.00;100166.50;4823132;29;20033;-62
2022/01/19 03:20:05;;;;;;;20.98;8.25;;;;;;;-4.02;100.00;100171.66;4822940;29;20082;-63
2022/01/19 03:22:38;;;;;;;18.33;8.30;;;;;;;-4.14;100.00;100163.63;4822928;29;20023;-63
2022/01/19 03:25:11;;;;;;;17.33;8.27;;;;;;;-4.08;100.00;100158.94;4822813;29;20565;-63
2022/01/19 03:27:36;;;;;;;17.92;7.93;;;;;;;-4.14;100.00;100155.78;4821487;29;20045;-63
2022/01/19 03:30:04;;;;;;;20.23;9.17;;;;;;;-4.18;100.00;100149.91;4822745;29;20034;-62
2022/01/19 03:32:29;;;;;;;17.85;8.50;;;;;;;-4.22;100.00;100139.69;4822674;29;20416;-62
2022/01/19 03:34:55;;;;;;;19.33;8.63;;;;;;;-4.26;100.00;100139.00;4822797;29;20042;-62
2022/01/19 03:37:20;;;;;;;20.23;8.00;;;;;;;-4.27;100.00;100144.31;4822698;29;20038;-62
2022/01/19 03:39:46;;;;;;;19.37;7.73;;;;;;;-4.14;100.00;100140.13;4822899;29;20030;-62
2022/01/19 03:42:12;;;;;;;20.70;7.90;;;;;;;-4.15;100.00;100139.28;4822707;29;20042;-63
2022/01/19 03:44:37;;;;;;;16.93;8.80;;;;;;;-4.16;100.00;100137.63;4822981;29;20086;-63
2022/01/19 03:47:04;;;;;;;23.20;9.07;;;;;;;-4.18;100.00;100136.00;4822505;29;20164;-63
2022/01/19 03:49:33;;;;;;;26.65;11.25;;;;;;;-4.18;100.00;100142.06;4822581;29;20056;-62
2022/01/19 03:52:02;;;;;;;28.75;11.50;;;;;;;-4.12;100.00;100135.66;4822674;29;20449;-62
2022/01/19 03:54:29;;;;;;;28.95;12.68;;;;;;;-4.17;100.00;100130.72;4822606;29;20117;-63
2022/01/19 03:56:55;;;;;;;30.02;11.63;;;;;;;-4.21;100.00;100139.63;4821481;29;20041;-63
2022/01/19 03:59:21;;;;;;;21.90;10.27;;;;;;;-4.28;100.00;100129.56;4822451;29;20465;-63
2022/01/19 04:01:47;;;;;;;18.25;7.82;;;;;;;-4.20;100.00;100130.88;4822417;29;20038;-62
2022/01/19 04:07:02;;;;;;;21.17;8.13;;;;;;;-3.82;100.00;100125.41;4822335;29;20042;-62
2022/01/19 04:09:30;;;;;;;17.08;8.60;;;;;;;-3.80;100.00;100121.75;4822243;29;20067;-63
2022/01/19 04:11:56;;;;;;;17.90;8.50;;;;;;;-3.85;100.00;100122.94;4822054;29;20138;-62
2022/01/19 04:14:22;;;;;;;15.43;7.30;;;;;;;-3.85;100.00;100115.97;4833618;29;20458;-62
2022/01/19 04:16:55;;;;;;;14.70;7.28;;;;;;;-3.84;100.00;100115.03;4840419;29;20094;-63
2022/01/19 04:19:24;;;;;;;;;;;;;;;-3.94;100.00;100110.38;4841012;29;21871;-63
2022/01/19 04:21:50;;;;;;;13.55;6.20;;;;;;;-4.08;100.00;100098.91;4840618;29;19924;-62
2022/01/19 04:24:17;;;;;;;17.10;6.28;;;;;;;-4.07;100.00;100099.75;4840405;29;20110;-63
2022/01/19 04:26:44;;;;;;;18.02;6.38;;;;;;;-4.12;100.00;100099.97;4842543;29;20506;-62
2022/01/19 04:29:10;;;;;;;15.80;6.28;;;;;;;-4.15;100.00;100091.47;4843765;29;20034;-62
2022/01/19 04:31:36;;;;;;;16.57;7.67;;;;;;;-4.26;100.00;100083.34;4843570;29;20041;-62
2022/01/19 04:34:04;;;;;;;18.00;7.73;;;;;;;-4.29;100.00;100079.16;4843624;29;20814;-63
2022/01/19 05:05:45;;;;;;;15.52;6.72;;;;;;;-3.93;100.00;100034.59;4843152;29;20449;-63
2022/01/19 05:15:51;;;;;;;14.75;6.35;;;;;;;-3.96;100.00;100010.41;4841911;29;20121;-63
2022/01/19 05:18:18;;;;;;;14.73;6.35;;;;;;;-3.90;100.00;100007.44;4843134;29;20446;-62
2022/01/19 05:20:45;;;;;;;17.20;6.60;;;;;;;-3.76;100.00;100012.75;4842843;29;20044;-63
2022/01/19 05:23:12;;;;;;;15.60;7.07;;;;;;;-3.75;100.00;100006.63;4842857;29;20055;-62
2022/01/19 05:25:38;;;;;;;17.25;6.80;;;;;;;-3.80;100.00;99993.81;4842673;29;20042;-62
2022/01/19 05:28:04;;;;;;;13.73;6.60;;;;;;;-3.81;100.00;99988.69;4842504;29;20037;-62
2022/01/19 05:30:29;;;;;;;15.02;6.80;;;;;;;-3.86;100.00;99980.25;4842312;29;20066;-63
2022/01/19 05:32:55;;;;;;;15.47;6.10;;;;;;;-3.90;100.00;99984.78;4842659;29;20030;-63
2022/01/19 05:35:20;;;;;;;14.40;6.70;;;;;;;-3.84;100.00;99987.09;4841323;29;20100;-63
2022/01/19 05:37:46;;;;;;;15.03;6.43;;;;;;;-3.85;100.00;99990.63;4842158;29;20384;-63
2022/01/19 05:40:16;;;;;;;16.70;6.50;;;;;;;-3.82;100.00;99982.63;4842405;29;20053;-63
2022/01/19 05:42:43;;;;;;;17.08;7.50;;;;;;;-3.77;100.00;99985.81;4842453;29;20808;-63
2022/01/19 05:45:09;;;;;;;21.63;8.52;;;;;;;-3.76;100.00;99984.88;4842562;29;20060;-63
2022/01/19 05:47:35;;;;;;;16.08;6.72;;;;;;;-3.75;100.00;99981.34;4841256;29;20053;-63
2022/01/19 05:50:00;;;;;;;16.13;6.83;;;;;;;-3.81;100.00;99983.47;4841118;29;20522;-63
2022/01/19 05:52:26;;;;;;;17.23;6.80;;;;;;;-3.91;100.00;99975.28;4842269;29;20507;-63
2022/01/19 05:54:51;;;;;;;17.50;7.77;;;;;;;-4.02;100.00;99970.66;4841897;29;20033;-63
2022/01/19 05:57:17;;;;;;;19.70;7.37;;;;;;;-4.07;100.00;99962.25;4841890;29;20503;-64
2022/01/19 05:59:43;;;;;;;17.63;7.43;;;;;;;-4.02;100.00;99957.59;4842072;29;20030;-64
2022/01/19 06:02:09;;;;;;;18.77;8.43;;;;;;;-4.07;100.00;99962.25;4841662;29;20644;-64
2022/01/19 06:04:35;;;;;;;20.35;8.02;;;;;;;-3.98;100.00;99947.00;4841948;29;20090;-63
2022/01/19 06:07:03;;;;;;;23.47;9.07;;;;;;;-3.97;100.00;99953.91;4842147;29;20033;-64
2022/01/19 06:09:37;;;;;;;21.45;7.78;;;;;;;-3.97;100.00;99952.13;4841806;29;20030;-64
2022/01/19 06:12:05;;;;;;;18.55;8.10;;;;;;;-3.79;100.00;99960.69;4841588;29;20050;-64
2022/01/19 06:14:32;;;;;;;15.10;7.45;;;;;;;-3.81;100.00;99957.34;4841907;29;20747;-64
2022/01/19 06:16:58;;;;;;;17.27;7.70;;;;;;;-3.73;100.00;99955.16;4840497;29;20740;-63
2022/01/19 06:19:24;;;;;;;15.70;7.45;;;;;;;-3.81;100.00;99952.13;4841263;29;20037;-64
2022/01/19 06:21:51;;;;;;;16.17;7.17;;;;;;;-3.84;100.00;99954.91;4841576;29;20403;-63
2022/01/19 06:24:16;;;;;;;18.50;7.72;;;;;;;-3.97;100.00;99948.69;4841379;29;20085;-64
2022/01/19 06:26:42;;;;;;;14.60;6.97;;;;;;;-4.04;100.00;99949.00;4839926;29;20449;-64
2022/01/19 06:29:08;;;;;;;15.93;7.78;;;;;;;-4.04;100.00;99943.78;4840488;29;20468;-63
2022/01/19 06:31:34;;;;;;;15.87;7.47;;;;;;;-4.03;100.00;99939.41;4840415;29;20045;-64
2022/01/19 06:33:59;;;;;;;17.93;7.27;;;;;;;-4.02;100.00;99933.25;4841643;29;20044;-63
2022/01/19 06:36:25;;;;;;;18.47;8.77;;;;;;;-3.90;100.00;99936.97;4841404;29;20045;-63
2022/01/19 06:38:51;;;;;;;18.80;9.83;;;;;;;-3.87;100.00;99929.81;4834677;29;20029;-63
2022/01/19 06:41:17;;;;;;;22.50;11.25;;;;;;;-3.89;100.00;99938.66;4841472;29;20034;-63
2022/01/19 06:43:43;;;;;;;23.57;12.37;;;;;;;-3.83;100.00;99930.47;4841289;29;20037;-63
2022/01/19 06:46:09;;;;;;;24.80;12.90;;;;;;;-3.85;100.00;99935.78;4840550;29;20044;-63
2022/01/19 06:48:37;;;;;;;21.73;11.53;;;;;;;-3.89;100.00;99942.09;4825326;29;20045;-63
2022/01/19 06:51:03;;;;;;;20.65;11.52;;;;;;;-3.87;100.00;99932.41;4823677;29;20046;-64
2022/01/19 06:53:29;;;;;;;18.70;9.17;;;;;;;-3.90;100.00;99929.13;4823644;29;20050;-63
2022/01/19 06:55:57;;;;;;;18.23;8.73;;;;;;;-3.78;100.00;99928.44;4823233;29;20274;-64
2022/01/19 06:58:25;;;;;;;18.48;8.40;;;;;;;-3.82;100.00;99925.19;4819674;29;20547;-62
2022/01/19 07:00:51;;;;;;;20.30;8.95;;;;;;;-3.78;100.00;99913.59;4820290;29;20125;-63
2022/01/19 07:03:16;;;;;;;17.20;8.87;;;;;;;-3.78;100.00;99912.75;4824287;29;20460;-63
2022/01/19 07:05:42;;;;;;;19.60;8.97;;;;;;;-3.76;100.00;99903.91;4827137;29;20052;-65
2022/01/19 07:08:08;;;;;;;22.70;10.00;;;;;;;-3.72;100.00;99888.94;4821667;29;20322;-63
2022/01/19 07:10:33;;;;;;;20.73;9.70;;;;;;;-3.77;100.00;99899.63;4818572;29;20061;-63
2022/01/19 07:13:00;;;;;;;21.20;8.87;;;;;;;-3.67;100.00;99895.56;4822661;29;20034;-63
2022/01/19 07:15:26;;;;;;;21.80;9.45;;;;;;;-3.71;100.00;99901.06;4823488;29;20038;-63
2022/01/19 07:17:51;;;;;;;21.30;9.27;;;;;;;-3.68;100.00;99901.69;4822060;29;20034;-63
2022/01/19 07:20:17;;;;;;;19.77;9.50;;;;;;;-3.59;100.00;99899.50;4821703;29;20438;-63
2022/01/19 07:22:43;;;;;;;19.57;8.87;;;;;;;-3.62;100.00;99904.91;4821947;29;20042;-62
2022/01/19 07:25:09;;;;;;;20.92;8.88;;;;;;;-3.51;100.00;99902.50;4822361;29;20103;-62
2022/01/19 07:27:35;;;;;;;23.43;10.00;;;;;;;-3.56;100.00;99902.75;4822673;29;20035;-61
2022/01/19 07:30:01;;;;;;;22.93;9.60;;;;;;;-3.43;100.00;99902.91;4820700;29;20484;-61
2022/01/19 07:32:30;;;;;;;21.17;9.20;;;;;;;-3.42;100.00;99900.19;4822122;29;20523;-61
2022/01/19 07:34:56;;;;;;;20.75;9.43;;;;;;;-3.30;100.00;99903.88;4820878;29;20076;-63
2022/01/19 07:37:22;;;;;;;24.07;9.17;;;;;;;-3.28;100.00;99904.63;4822024;29;20058;-61
2022/01/19 07:39:48;;;;;;;19.73;9.10;;;;;;;-3.28;100.00;99908.06;4822756;29;20046;-63
2022/01/19 07:42:13;;;;;;;24.40;10.03;;;;;;;-3.27;100.00;99906.31;4822127;29;20038;-63
2022/01/19 07:44:39;;;;;;;21.57;9.37;;;;;;;-3.23;100.00;99902.56;4822595;29;20066;-63
2022/01/19 07:47:06;;;;;;;21.43;10.23;;;;;;;-3.19;100.00;99900.59;4832114;29;20036;-63
2022/01/19 07:49:32;;;;;;;21.58;9.05;;;;;;;-3.04;100.00;99904.94;4826499;29;20065;-62
2022/01/19 07:51:57;;;;;;;22.47;10.07;;;;;;;-3.01;100.00;99899.53;4822257;29;20062;-62
2022/01/19 07:54:23;;;;;;;24.63;11.80;;;;;;;-2.59;100.00;99903.91;4832452;29;20045;-63
2022/01/19 07:56:48;;;;;;;25.43;10.63;;;;;;;-1.22;100.00;99910.72;4816448;29;20115;-63
2022/01/19 07:59:16;;;;;;;21.60;9.65;;;;;;;-0.77;100.00;99902.34;4822144;29;20078;-64
2022/01/19 08:01:42;;;;;;;18.10;8.10;;;;;;;-0.64;100.00;99907.56;4823753;29;20049;-59
2022/01/19 08:04:08;;;;;;;13.67;7.00;;;;;;;0.26;100.00;99903.72;4825401;29;20480;-61
2022/01/19 08:06:33;;;;;;;11.50;6.37;;;;;;;1.17;100.00;99906.50;4833568;29;20039;-63
2022/01/19 08:08:59;;;;;;;10.93;5.60;;;;;;;2.31;100.00;99902.66;4833778;29;20566;-62
2022/01/19 08:11:25;;;;;;;12.63;5.60;;;;;;;2.98;100.00;99904.97;4827101;29;20042;-63
2022/01/19 08:13:50;;;;;;;11.20;5.53;;;;;;;3.37;100.00;99906.84;4824371;29;20070;-63
2022/01/19 08:16:17;;;;;;;13.40;6.87;;;;;;;3.79;100.00;99902.28;4825157;29;20038;-63
2022/01/19 08:18:42;;;;;;;12.10;6.03;;;;;;;3.39;100.00;99907.56;4825022;29;20082;-63
2022/01/19 08:21:08;;;;;;;9.93;5.80;;;;;;;3.43;100.00;99902.84;4823814;29;20952;-64
2022/01/19 08:23:33;;;;;;;11.60;5.97;;;;;;;3.79;100.00;99901.47;4824900;29;20042;-64
2022/01/19 08:25:59;;;;;;;10.87;6.07;;;;;;;4.36;100.00;99911.31;4823777;29;20046;-64
2022/01/19 08:28:24;;;;;;;14.57;6.97;;;;;;;4.68;100.00;99917.16;4824742;29;20141;-64
2022/01/19 08:30:50;;;;;;;13.10;6.50;;;;;;;4.85;100.00;99904.19;4824892;29;20039;-64
2022/01/19 08:33:16;;;;;;;15.30;6.37;;;;;;;5.09;100.00;99915.16;4824709;29;20040;-64
2022/01/19 08:35:41;;;;;;;16.53;7.40;;;;;;;4.61;100.00;99907.28;4824562;29;20038;-64
2022/01/19 08:38:07;;;;;;;19.07;7.27;;;;;;;5.03;100.00;99913.94;4824680;29;20030;-64
2022/01/19 08:40:34;;;;;;;18.63;7.33;;;;;;;4.80;100.00;99901.13;4824644;29;20030;-64
2022/01/19 08:43:00;;;;;;;17.63;7.30;;;;;;;4.99;100.00;99901.94;4824584;29;20752;-64
2022/01/19 08:45:26;;;;;;;18.00;8.00;;;;;;;4.88;100.00;99894.16;4823899;29;20316;-64
2022/01/19 08:47:52;;;;;;;16.57;8.00;;;;;;;4.34;100.00;99895.56;4824389;29;20489;-64
2022/01/19 08:50:18;;;;;;;14.17;7.90;;;;;;;4.42;100.00;99892.22;4824388;29;20069;-64
2022/01/19 08:52:44;;;;;;;15.33;8.90;;;;;;;4.41;100.00;99893.19;4824498;29;20290;-64
2022/01/19 08:55:10;;;;;;;20.50;10.87;;;;;;;4.29;100.00;99889.84;4823996;29;20277;-65
2022/01/19 08:57:35;;;;;;;36.00;18.20;;;;;;;4.05;100.00;99894.69;4824425;29;20030;-63
2022/01/19 09:00:03;;;;;;;23.47;10.97;;;;;;;4.08;100.00;99893.59;4824627;29;20296;-64
2022/01/19 09:02:29;;;;;;;19.17;10.43;;;;;;;3.85;100.00;99906.19;4823328;29;20065;-63
2022/01/19 09:04:54;;;;;;;25.70;13.17;;;;;;;3.88;100.00;99912.06;4824433;29;20313;-65
2022/01/19 09:07:20;;;;;;;32.23;15.67;;;;;;;4.02;100.00;99910.00;4824186;29;20126;-64
2022/01/19 09:09:46;;;;;;;34.30;16.53;;;;;;;4.19;100.00;99906.69;4824001;29;20041;-64
2022/01/19 09:12:11;;;;;;;32.77;15.70;;;;;;;4.13;100.00;99912.53;4822264;29;20054;-64
2022/01/19 09:14:37;;;;;;;26.90;13.93;;;;;;;4.40;100.00;99904.75;4824266;29;20042;-64
2022/01/19 09:17:07;;;;;;;23.67;12.20;;;;;;;4.83;100.00;99912.28;4823947;29;20045;-64
2022/01/19 09:19:34;;;;;;;26.03;12.87;;;;;;;4.97;100.00;99906.53;4824261;29;20035;-64
2022/01/19 09:22:02;;;;;;;27.20;12.93;;;;;;;4.82;100.00;99905.31;4824358;29;20282;-64
2022/01/19 09:24:29;;;;;;;20.70;10.70;;;;;;;4.86;100.00;99896.09;4824151;29;20308;-64
2022/01/19 09:26:54;;;;;;;14.13;7.80;;;;;;;4.06;100.00;99896.34;4824271;29;20636;-64
2022/01/19 09:29:20;;;;;;;15.33;7.50;;;;;;;4.43;100.00;99896.53;4824466;29;20286;-64
2022/01/19 09:31:45;;;;;;;17.80;8.40;;;;;;;5.03;100.00;99891.91;4823857;29;20049;-64
2022/01/19 09:34:15;;;;;;;12.63;7.53;;;;;;;5.04;100.00;99898.88;4823831;29;20388;-64
2022/01/19 09:36:45;;;;;;;12.47;6.50;;;;;;;4.54;100.00;99892.91;4823866;29;20065;-65
2022/01/19 09:39:13;;;;;;;11.10;6.40;;;;;;;4.74;100.00;99895.41;4824013;29;20377;-64
2022/01/19 09:41:38;;;;;;;15.10;8.60;;;;;;;5.60;100.00;99890.88;4834347;29;20304;-64
2022/01/19 09:44:04;;;;;;;13.90;6.60;;;;;;;4.85;100.00;99886.47;4841890;29;20377;-64
2022/01/19 09:46:30;;;;;;;9.70;5.20;;;;;;;5.18;100.00;99884.34;4840956;29;20461;-64
2022/01/19 09:48:58;;;;;;;9.37;6.00;;;;;;;5.09;100.00;99884.19;4826584;29;20030;-64
2022/01/19 09:51:24;;;;;;;13.10;6.00;;;;;;;5.77;100.00;99879.47;4823346;29;20061;-65
2022/01/19 09:53:49;;;;;;;9.10;5.83;;;;;;;5.44;100.00;99882.69;4822892;29;20848;-64
2022/01/19 09:56:17;;;;;;;13.40;5.40;;;;;;;6.18;100.00;99883.47;4822363;29;20481;-64
2022/01/19 09:58:43;;;;;;;11.80;5.70;;;;;;;6.38;100.00;99881.50;4823246;29;20457;-64
2022/01/19 10:01:08;;;;;;;10.13;5.33;;;;;;;5.80;100.00;99871.22;4823415;29;20122;-64
2022/01/19 10:03:34;;;;;;;8.83;4.73;;;;;;;6.71;100.00;99863.19;4823443;29;20034;-64
2022/01/19 10:06:10;;;;;;;8.40;5.30;;;;;;;6.19;100.00;99860.41;4823274;29;20042;-64
2022/01/19 10:08:43;;;;;;;9.50;5.73;;;;;;;6.39;100.00;99855.78;4823430;29;20038;-64
2022/01/19 10:11:16;;;;;;;10.70;5.25;;;;;;;6.69;100.00;99849.25;4823267;29;20058;-64
2022/01/19 10:19:20;;;;;;;10.40;5.37;;;;;;;7.00;100.00;99820.41;4822558;29;20038;-64
2022/01/19 10:21:55;;;;;;;10.67;5.80;;;;;;;6.49;100.00;99808.75;4823310;29;20041;-64
2022/01/19 10:24:41;;;;;;;13.57;5.23;;;;;;;7.98;100.00;99807.31;4823116;29;20026;-64
2022/01/19 10:27:33;;;;;;;9.10;5.50;;;;;;;7.14;100.00;99794.06;4823373;29;20057;-61
2022/01/19 10:30:01;;;;;;;10.67;5.20;;;;;;;6.39;100.00;99786.75;4823125;29;20027;-64
2022/01/19 10:32:27;;;;;;;13.10;6.00;;;;;;;4.64;100.00;99786.06;4826957;29;20042;-64
2022/01/19 10:34:53;;;;;;;9.13;5.30;;;;;;;4.65;100.00;99776.31;4841058;29;20094;-64
2022/01/19 10:37:36;;;;;;;10.10;5.63;;;;;;;6.23;100.00;99768.88;4841236;29;20028;-64
2022/01/19 10:40:03;;;;;;;10.57;5.43;;;;;;;5.70;100.00;99758.25;4835281;29;20036;-64
2022/01/19 10:42:32;;;;;;;9.93;5.70;;;;;;;6.04;100.00;99753.13;4823030;29;20118;-64
2022/01/19 10:45:01;;;;;;;10.67;5.33;;;;;;;6.59;100.00;99731.63;4823022;29;20376;-64
2022/01/19 10:47:49;;;;;;;10.17;5.33;;;;;;;7.12;100.00;99729.63;4823175;29;20034;-64
2022/01/19 10:50:41;;;;;;;9.93;5.07;;;;;;;8.34;100.00;99714.69;4822898;29;20026;-64
2022/01/19 10:53:07;;;;;;;10.97;5.50;;;;;;;7.69;100.00;99711.16;4820991;29;20074;-64
2022/01/19 10:55:40;;;;;;;20.43;6.63;;;;;;;8.17;100.00;99705.03;4822343;29;20061;-64
2022/01/19 10:58:12;;;;;;;12.82;6.30;;;;;;;7.68;100.00;99701.50;4805469;29;20372;-64
2022/01/19 11:00:37;;;;;;;10.23;6.13;;;;;;;7.67;100.00;99697.19;4821880;29;20469;-64
2022/01/19 11:03:28;;;;;;;14.43;6.50;;;;;;;7.70;100.00;99691.53;4822350;29;20033;-64
2022/01/19 11:06:01;;;;;;;12.07;7.10;;;;;;;7.93;100.00;99678.44;4822802;29;20038;-64
2022/01/19 11:08:29;;;;;;;18.05;7.65;;;;;;;7.59;100.00;99668.75;4822630;29;20037;-64
2022/01/19 11:10:56;;;;;;;12.47;6.43;;;;;;;7.03;100.00;99661.50;4822308;29;20046;-64
2022/01/19 11:13:33;;;;;;;11.53;6.13;;;;;;;6.10;100.00;99664.97;4822614;29;20109;-63
2022/01/19 11:16:03;;;;;;;13.10;6.37;;;;;;;6.29;100.00;99666.59;4822583;29;20053;-63
2022/01/19 11:18:30;;;;;;;11.17;7.00;;;;;;;6.15;100.00;99674.13;4822654;29;20431;-63
2022/01/19 11:21:01;;;;;;;10.43;6.23;;;;;;;6.55;100.00;99662.09;4822583;29;20042;-63
2022/01/19 11:23:48;;;;;;;11.47;6.27;;;;;;;6.40;100.00;99669.81;4820665;29;20026;-64
2022/01/19 11:26:21;;;;;;;12.60;6.10;;;;;;;6.76;100.00;99659.88;4822347;29;20548;-63
2022/01/19 11:28:49;;;;;;;10.87;6.00;;;;;;;6.66;100.00;99661.81;4822538;29;20041;-64
2022/01/19 11:31:20;;;;;;;10.83;6.27;;;;;;;7.47;100.00;99658.59;4822414;29;20060;-65
2022/01/19 11:33:52;;;;;;;12.37;6.70;;;;;;;7.99;100.00;99645.81;4822565;29;20041;-64
2022/01/19 11:36:27;;;;;;;16.13;6.53;;;;;;;7.24;100.00;99635.31;4828174;29;20034;-64
2022/01/19 11:39:20;;;;;;;12.10;7.00;;;;;;;8.27;100.00;99628.47;4828296;29;20044;-63
2022/01/19 11:42:04;;;;;;;11.73;6.60;;;;;;;8.14;100.00;99627.34;4828105;29;20034;-61
2022/01/19 11:44:32;;;;;;;13.63;6.73;;;;;;;7.73;100.00;99608.72;4828297;29;20042;-62
2022/01/19 11:47:09;;;;;;;10.60;6.27;;;;;;;7.39;100.00;99606.22;4828549;29;20118;-62
2022/01/19 11:49:50;;;;;;;11.27;6.60;;;;;;;7.50;100.00;99589.94;4828111;29;20469;-63
2022/01/19 11:52:19;;;;;;;11.57;6.60;;;;;;;8.08;100.00;99574.75;4828273;29;20037;-62
2022/01/19 11:54:47;;;;;;;12.33;6.73;;;;;;;7.44;100.00;99581.81;4827099;29;20373;-63
2022/01/19 11:57:22;;;;;;;11.57;6.33;;;;;;;7.47;100.00;99568.19;4828198;29;20036;-62
2022/01/19 11:59:48;;;;;;;11.70;6.33;;;;;;;7.61;100.00;99559.56;4828060;29;20053;-62
2022/01/19 12:02:26;;;;;;;11.47;6.60;;;;;;;8.21;100.00;99561.75;4828085;29;20404;-64
2022/01/19 12:04:58;;;;;;;12.53;6.80;;;;;;;9.10;100.00;99560.56;4827966;29;20030;-64
2022/01/19 12:07:38;;;;;;;12.67;7.30;;;;;;;9.29;98.73;99544.09;4828081;29;20034;-63
2022/01/19 12:10:25;;;;;;;11.50;6.70;;;;;;;8.91;100.00;99541.31;4827812;29;20038;-63
2022/01/19 12:13:36;;;;;;;14.00;7.20;;;;;;;8.55;100.00;99533.03;4821106;29;20389;-62
2022/01/19 12:16:08;;;;;;;11.43;7.07;;;;;;;8.70;100.00;99525.97;4827898;29;20496;-63
2022/01/19 12:18:53;;;;;;;10.95;6.93;;;;;;;9.02;97.54;99521.44;4827809;29;20092;-64
2022/01/19 12:21:40;;;;;;;11.70;6.70;;;;;;;8.96;100.00;99515.00;4827726;29;20046;-64
2022/01/19 12:24:16;;;;;;;11.43;6.70;;;;;;;9.53;96.56;99503.03;4827739;29;20388;-64
2022/01/19 12:26:50;;;;;;;10.60;6.53;;;;;;;10.47;88.19;99492.50;4827245;29;20054;-65
2022/01/19 12:29:38;;;;;;;11.60;6.20;;;;;;;9.95;77.89;99483.75;4827613;29;20448;-66
2022/01/19 12:32:05;;;;;;;14.13;7.00;;;;;;;8.39;87.64;99489.69;4827578;29;20038;-64
2022/01/19 12:35:14;;;;;;;11.23;6.60;;;;;;;9.94;81.04;99476.75;4827690;29;20030;-64
2022/01/19 12:37:44;;;;;;;12.17;6.73;;;;;;;9.73;79.60;99472.16;4789055;30;20425;-64
2022/01/19 12:40:18;;;;;;;11.97;6.50;;;;;;;8.43;85.74;99467.00;4789111;30;20077;-64
2022/01/19 12:42:49;;;;;;;12.60;6.77;;;;;;;9.29;85.22;99461.41;4789225;30;20042;-64
2022/01/19 12:45:20;;;;;;;10.77;6.23;;;;;;;10.81;73.42;99453.63;4788953;29;20039;-63
2022/01/19 12:47:46;;;;;;;11.20;6.50;;;;;;;11.58;68.11;99454.50;4784666;30;20081;-64
2022/01/19 12:50:12;;;;;;;11.70;6.70;;;;;;;10.85;72.24;99449.53;4786323;30;20051;-64
2022/01/19 12:52:43;;;;;;;12.97;6.83;;;;;;;10.95;71.68;99438.53;4786216;30;20789;-64
2022/01/19 12:55:20;;;;;;;13.50;6.97;;;;;;;11.65;67.78;99426.97;4795544;29;20389;-65
2022/01/19 12:57:48;;;;;;;9.57;6.40;;;;;;;11.56;68.84;99428.94;4803885;29;20031;-64
2022/01/19 13:00:22;;;;;;;11.40;6.50;;;;;;;11.64;66.33;99420.78;4803996;29;20453;-65